sensor_id;sensor_type;location;lat;lon;timestamp;pressure;altitude;pressure_sealevel;temperature;humidity
24306;BME280;12423;48.768;8.850;2023-02-22T00:01:21;96892.06;;;3.85;100.00
24306;BME280;12423;48.768;8.850;2023-02-22T00:03:34;96891.97;;;3.86;100.00
24306;BME280;12423;48.768;8.850;2023-02-22T00:05:36;96891.22;;;3.84;100.00
24306;BME280;12423;48.768;8.850;2023-02-22T00:07:38;96883.28;;;3.84;100.00
24306;BME280;12423;48.768;8.850;2023-02-22T00:09:39;96886.28;;;3.78;100.00
24306;BME280;12423;48.768;8.850;2023-02-22T00:11:44;96888.94;;;3.78;100.00
24306;BME280;12423;48.768;8.850;2023-02-22T00:13:46;96892.69;;;3.74;100.00
24306;BME280;12423;48.768;8.850;2023-02-22T00:15:47;96882.91;;;3.76;100.00
24306;BME280;12423;48.768;8.850;2023-02-22T00:17:49;96882.22;;;3.73;100.00
24306;BME280;12423;48.768;8.850;2023-02-22T00:19:50;96880.25;;;3.62;100.00
24306;BME280;12423;48.768;8.850;2023-02-22T00:21:51;96877.59;;;3.62;100.00
24306;BME280;12423;48.768;8.850;2023-02-22T00:23:53;96878.34;;;3.64;100.00
24306;BME280;12423;48.768;8.850;2023-02-22T00:25:54;96884.47;;;3.64;100.00
24306;BME280;12423;48.768;8.850;2023-02-22T00:27:56;96879.41;;;3.61;100.00
24306;BME280;12423;48.768;8.850;2023-02-22T00:29:57;96874.75;;;3.50;100.00
24306;BME280;12423;48.768;8.850;2023-02-22T00:32:00;96877.41;;;3.50;100.00
24306;BME280;12423;48.768;8.850;2023-02-22T00:34:01;96875.69;;;3.49;100.00
24306;BME280;12423;48.768;8.850;2023-02-22T00:36:02;96873.44;;;3.58;100.00
24306;BME280;12423;48.768;8.850;2023-02-22T00:38:04;96867.84;;;3.48;100.00
24306;BME280;12423;48.768;8.850;2023-02-22T00:40:05;96874.84;;;3.49;100.00
24306;BME280;12423;48.768;8.850;2023-02-22T00:42:08;96869.38;;;3.52;100.00
24306;BME280;12423;48.768;8.850;2023-02-22T00:44:09;96865.03;;;3.51;100.00
24306;BME280;12423;48.768;8.850;2023-02-22T00:46:12;96865.81;;;3.53;100.00
24306;BME280;12423;48.768;8.850;2023-02-22T00:48:13;96859.47;;;3.56;100.00
24306;BME280;12423;48.768;8.850;2023-02-22T00:50:15;96858.16;;;3.48;100.00
24306;BME280;12423;48.768;8.850;2023-02-22T00:52:16;96857.97;;;3.52;100.00
24306;BME280;12423;48.768;8.850;2023-02-22T00:54:17;96857.09;;;3.51;100.00
24306;BME280;12423;48.768;8.850;2023-02-22T00:56:19;96857.69;;;3.42;100.00
24306;BME280;12423;48.768;8.850;2023-02-22T00:58:21;96853.16;;;3.44;100.00
24306;BME280;12423;48.768;8.850;2023-02-22T01:02:25;96859.75;;;3.37;100.00
24306;BME280;12423;48.768;8.850;2023-02-22T01:04:26;96852.66;;;3.37;100.00
24306;BME280;12423;48.768;8.850;2023-02-22T01:06:27;96851.53;;;3.41;100.00
24306;BME280;12423;48.768;8.850;2023-02-22T01:08:28;96856.16;;;3.38;100.00
24306;BME280;12423;48.768;8.850;2023-02-22T01:10:32;96848.81;;;3.43;100.00
24306;BME280;12423;48.768;8.850;2023-02-22T01:12:33;96845.41;;;3.41;100.00
24306;BME280;12423;48.768;8.850;2023-02-22T01:14:34;96846.81;;;3.32;100.00
24306;BME280;12423;48.768;8.850;2023-02-22T01:16:35;96845.47;;;3.25;100.00
24306;BME280;12423;48.768;8.850;2023-02-22T01:18:36;96844.28;;;3.30;100.00
24306;BME280;12423;48.768;8.850;2023-02-22T01:20:37;96847.00;;;3.29;100.00
24306;BME280;12423;48.768;8.850;2023-02-22T01:22:43;96841.91;;;3.26;100.00
24306;BME280;12423;48.768;8.850;2023-02-22T01:24:44;96838.91;;;3.32;100.00
24306;BME280;12423;48.768;8.850;2023-02-22T01:26:50;96835.59;;;3.43;100.00
24306;BME280;12423;48.768;8.850;2023-02-22T01:28:52;96837.75;;;3.36;100.00
24306;BME280;12423;48.768;8.850;2023-02-22T01:30:52;96836.91;;;3.36;100.00
24306;BME280;12423;48.768;8.850;2023-02-22T01:32:59;96836.34;;;3.30;100.00
24306;BME280;12423;48.768;8.850;2023-02-22T01:35:00;96834.56;;;3.31;100.00
24306;BME280;12423;48.768;8.850;2023-02-22T01:37:04;96831.16;;;3.29;100.00
24306;BME280;12423;48.768;8.850;2023-02-22T01:39:08;96829.19;;;3.32;100.00
24306;BME280;12423;48.768;8.850;2023-02-22T01:41:11;96831.16;;;3.29;100.00
24306;BME280;12423;48.768;8.850;2023-02-22T01:47:34;96811.53;;;3.33;100.00
24306;BME280;12423;48.768;8.850;2023-02-22T01:49:43;96817.56;;;3.21;100.00
24306;BME280;12423;48.768;8.850;2023-02-22T01:51:48;96812.75;;;3.13;100.00
24306;BME280;12423;48.768;8.850;2023-02-22T01:53:58;96806.25;;;3.19;100.00
24306;BME280;12423;48.768;8.850;2023-02-22T01:56:01;96807.59;;;3.26;100.00
24306;BME280;12423;48.768;8.850;2023-02-22T01:58:04;96806.16;;;3.20;100.00
24306;BME280;12423;48.768;8.850;2023-02-22T02:00:10;96798.16;;;3.22;100.00
24306;BME280;12423;48.768;8.850;2023-02-22T02:02:17;96792.75;;;3.23;100.00
24306;BME280;12423;48.768;8.850;2023-02-22T02:04:20;96791.91;;;3.23;100.00
24306;BME280;12423;48.768;8.850;2023-02-22T02:06:31;96789.28;;;3.23;100.00
24306;BME280;12423;48.768;8.850;2023-02-22T02:09:01;96796.72;;;3.16;100.00
24306;BME280;12423;48.768;8.850;2023-02-22T02:11:05;96789.47;;;3.05;100.00
24306;BME280;12423;48.768;8.850;2023-02-22T02:13:07;96792.50;;;3.13;100.00
24306;BME280;12423;48.768;8.850;2023-02-22T02:15:28;96786.00;;;3.19;100.00
24306;BME280;12423;48.768;8.850;2023-02-22T02:17:30;96786.84;;;3.05;100.00
24306;BME280;12423;48.768;8.850;2023-02-22T02:20:00;96778.34;;;3.14;100.00
24306;BME280;12423;48.768;8.850;2023-02-22T02:27:17;96774.19;;;3.10;100.00
24306;BME280;12423;48.768;8.850;2023-02-22T02:29:42;96774.19;;;3.10;100.00
24306;BME280;12423;48.768;8.850;2023-02-22T02:32:06;96763.66;;;3.10;100.00
24306;BME280;12423;48.768;8.850;2023-02-22T02:34:26;96772.50;;;3.09;100.00
24306;BME280;12423;48.768;8.850;2023-02-22T02:36:42;96767.03;;;3.12;100.00
24306;BME280;12423;48.768;8.850;2023-02-22T02:38:54;96762.88;;;3.08;100.00
24306;BME280;12423;48.768;8.850;2023-02-22T02:41:09;96756.06;;;2.90;100.00
24306;BME280;12423;48.768;8.850;2023-02-22T02:45:45;96764.53;;;2.95;100.00
24306;BME280;12423;48.768;8.850;2023-02-22T02:47:52;96760.44;;;3.05;100.00
24306;BME280;12423;48.768;8.850;2023-02-22T02:50:02;96763.06;;;3.05;100.00
24306;BME280;12423;48.768;8.850;2023-02-22T02:52:05;96753.94;;;3.11;100.00
24306;BME280;12423;48.768;8.850;2023-02-22T02:54:08;96744.59;;;3.05;100.00
24306;BME280;12423;48.768;8.850;2023-02-22T02:56:10;96749.88;;;3.05;100.00
24306;BME280;12423;48.768;8.850;2023-02-22T02:58:17;96760.97;;;2.96;100.00
24306;BME280;12423;48.768;8.850;2023-02-22T03:00:23;96745.53;;;3.04;100.00
24306;BME280;12423;48.768;8.850;2023-02-22T03:05:25;96737.81;;;3.16;100.00
24306;BME280;12423;48.768;8.850;2023-02-22T03:08:04;96736.84;;;3.17;100.00
24306;BME280;12423;48.768;8.850;2023-02-22T03:17:36;96730.91;;;3.13;100.00
24306;BME280;12423;48.768;8.850;2023-02-22T03:19:44;96731.97;;;3.10;100.00
24306;BME280;12423;48.768;8.850;2023-02-22T03:21:55;96727.72;;;3.08;100.00
24306;BME280;12423;48.768;8.850;2023-02-22T03:24:21;96719.53;;;3.12;100.00
24306;BME280;12423;48.768;8.850;2023-02-22T03:26:33;96715.34;;;3.08;100.00
24306;BME280;12423;48.768;8.850;2023-02-22T03:28:39;96717.06;;;3.09;100.00
24306;BME280;12423;48.768;8.850;2023-02-22T03:30:47;96718.00;;;3.08;100.00
24306;BME280;12423;48.768;8.850;2023-02-22T03:32:52;96713.41;;;3.12;100.00
24306;BME280;12423;48.768;8.850;2023-02-22T03:35:10;96716.50;;;3.04;100.00
24306;BME280;12423;48.768;8.850;2023-02-22T03:37:16;96708.31;;;3.09;100.00
24306;BME280;12423;48.768;8.850;2023-02-22T03:39:19;96717.25;;;3.06;100.00
24306;BME280;12423;48.768;8.850;2023-02-22T03:41:22;96715.66;;;3.04;100.00
24306;BME280;12423;48.768;8.850;2023-02-22T03:43:30;96708.78;;;3.01;100.00
24306;BME280;12423;48.768;8.850;2023-02-22T03:45:36;96712.56;;;2.97;100.00
24306;BME280;12423;48.768;8.850;2023-02-22T03:47:43;96707.84;;;3.02;100.00
24306;BME280;12423;48.768;8.850;2023-02-22T03:49:52;96707.06;;;3.00;100.00
24306;BME280;12423;48.768;8.850;2023-02-22T03:51:55;96706.50;;;2.95;100.00
24306;BME280;12423;48.768;8.850;2023-02-22T03:53:58;96712.16;;;2.89;100.00
24306;BME280;12423;48.768;8.850;2023-02-22T03:56:06;96703.47;;;2.87;100.00
24306;BME280;12423;48.768;8.850;2023-02-22T03:58:11;96703.66;;;2.84;100.00
24306;BME280;12423;48.768;8.850;2023-02-22T04:00:17;96713.84;;;2.90;100.00
24306;BME280;12423;48.768;8.850;2023-02-22T04:02:18;96706.19;;;2.85;100.00
24306;BME280;12423;48.768;8.850;2023-02-22T04:04:20;96707.06;;;2.86;100.00
24306;BME280;12423;48.768;8.850;2023-02-22T04:06:23;96706.81;;;2.90;100.00
24306;BME280;12423;48.768;8.850;2023-02-22T04:08:24;96703.09;;;2.79;100.00
24306;BME280;12423;48.768;8.850;2023-02-22T04:10:26;96709.50;;;2.74;100.00
24306;BME280;12423;48.768;8.850;2023-02-22T04:12:27;96708.75;;;2.72;100.00
24306;BME280;12423;48.768;8.850;2023-02-22T04:14:32;96715.72;;;2.73;100.00
24306;BME280;12423;48.768;8.850;2023-02-22T04:16:33;96708.28;;;2.80;100.00
24306;BME280;12423;48.768;8.850;2023-02-22T04:18:35;96707.63;;;2.76;100.00
24306;BME280;12423;48.768;8.850;2023-02-22T04:20:36;96699.31;;;2.68;100.00
24306;BME280;12423;48.768;8.850;2023-02-22T04:22:45;96704.03;;;2.63;100.00
24306;BME280;12423;48.768;8.850;2023-02-22T04:24:46;96699.88;;;2.59;100.00
24306;BME280;12423;48.768;8.850;2023-02-22T04:26:51;96700.63;;;2.61;100.00
24306;BME280;12423;48.768;8.850;2023-02-22T04:28:54;96699.00;;;2.58;100.00
24306;BME280;12423;48.768;8.850;2023-02-22T04:30:57;96698.91;;;2.60;100.00
24306;BME280;12423;48.768;8.850;2023-02-22T04:33:02;96698.34;;;2.55;100.00
24306;BME280;12423;48.768;8.850;2023-02-22T04:35:04;96701.91;;;2.54;100.00
24306;BME280;12423;48.768;8.850;2023-02-22T04:37:06;96702.97;;;2.51;100.00
24306;BME280;12423;48.768;8.850;2023-02-22T04:39:07;96703.13;;;2.48;100.00
24306;BME280;12423;48.768;8.850;2023-02-22T04:41:08;96699.66;;;2.48;100.00
24306;BME280;12423;48.768;8.850;2023-02-22T04:43:09;96698.69;;;2.49;100.00
24306;BME280;12423;48.768;8.850;2023-02-22T04:45:10;96705.78;;;2.48;100.00
24306;BME280;12423;48.768;8.850;2023-02-22T04:47:12;96696.06;;;2.49;100.00
24306;BME280;12423;48.768;8.850;2023-02-22T04:49:14;96697.88;;;2.48;100.00
24306;BME280;12423;48.768;8.850;2023-02-22T04:51:17;96697.03;;;2.48;100.00
24306;BME280;12423;48.768;8.850;2023-02-22T04:53:29;96694.16;;;2.36;100.00
24306;BME280;12423;48.768;8.850;2023-02-22T04:55:30;96697.72;;;2.35;100.00
24306;BME280;12423;48.768;8.850;2023-02-22T04:57:31;96692.28;;;2.38;100.00
24306;BME280;12423;48.768;8.850;2023-02-22T04:59:32;96695.00;;;2.37;100.00
24306;BME280;12423;48.768;8.850;2023-02-22T05:01:36;96688.16;;;2.34;100.00
24306;BME280;12423;48.768;8.850;2023-02-22T05:03:38;96693.03;;;2.40;100.00
24306;BME280;12423;48.768;8.850;2023-02-22T05:05:39;96693.22;;;2.37;100.00
24306;BME280;12423;48.768;8.850;2023-02-22T05:07:40;96688.91;;;2.36;100.00
24306;BME280;12423;48.768;8.850;2023-02-22T05:09:41;96690.78;;;2.34;100.00
24306;BME280;12423;48.768;8.850;2023-02-22T05:11:42;96689.06;;;2.33;100.00
24306;BME280;12423;48.768;8.850;2023-02-22T05:13:43;96695.81;;;2.23;100.00
24306;BME280;12423;48.768;8.850;2023-02-22T05:15:44;96690.97;;;2.31;100.00
24306;BME280;12423;48.768;8.850;2023-02-22T05:17:45;96686.63;;;2.30;100.00
24306;BME280;12423;48.768;8.850;2023-02-22T05:19:46;96684.06;;;2.29;100.00
24306;BME280;12423;48.768;8.850;2023-02-22T05:21:47;96685.38;;;2.21;100.00
24306;BME280;12423;48.768;8.850;2023-02-22T05:23:48;96683.44;;;2.09;100.00
24306;BME280;12423;48.768;8.850;2023-02-22T05:25:49;96683.50;;;2.08;100.00
24306;BME280;12423;48.768;8.850;2023-02-22T05:27:56;96678.06;;;2.11;100.00
24306;BME280;12423;48.768;8.850;2023-02-22T05:29:57;96678.66;;;2.16;100.00
24306;BME280;12423;48.768;8.850;2023-02-22T05:31:59;96676.81;;;2.18;100.00
24306;BME280;12423;48.768;8.850;2023-02-22T05:34:02;96674.66;;;2.25;100.00
24306;BME280;12423;48.768;8.850;2023-02-22T05:36:03;96679.06;;;2.24;100.00
24306;BME280;12423;48.768;8.850;2023-02-22T05:38:05;96674.66;;;2.25;100.00
24306;BME280;12423;48.768;8.850;2023-02-22T05:40:06;96668.69;;;2.21;100.00
24306;BME280;12423;48.768;8.850;2023-02-22T05:42:07;96667.19;;;2.17;100.00
24306;BME280;12423;48.768;8.850;2023-02-22T05:44:08;96667.94;;;2.19;100.00
24306;BME280;12423;48.768;8.850;2023-02-22T05:46:09;96668.19;;;2.14;100.00
24306;BME280;12423;48.768;8.850;2023-02-22T05:48:10;96675.56;;;2.24;100.00
24306;BME280;12423;48.768;8.850;2023-02-22T05:50:13;96673.03;;;2.22;100.00
24306;BME280;12423;48.768;8.850;2023-02-22T05:52:14;96672.84;;;2.25;100.00
24306;BME280;12423;48.768;8.850;2023-02-22T05:54:15;96669.66;;;2.20;100.00
24306;BME280;12423;48.768;8.850;2023-02-22T05:56:23;96668.59;;;2.22;100.00
24306;BME280;12423;48.768;8.850;2023-02-22T05:58:24;96674.16;;;2.18;100.00
24306;BME280;12423;48.768;8.850;2023-02-22T06:00:28;96665.31;;;2.19;100.00
24306;BME280;12423;48.768;8.850;2023-02-22T06:02:29;96670.56;;;2.19;100.00
24306;BME280;12423;48.768;8.850;2023-02-22T06:04:30;96665.53;;;2.30;100.00
24306;BME280;12423;48.768;8.850;2023-02-22T06:06:31;96667.22;;;2.31;100.00
24306;BME280;12423;48.768;8.850;2023-02-22T06:08:32;96672.31;;;2.34;100.00
24306;BME280;12423;48.768;8.850;2023-02-22T06:10:33;96671.53;;;2.32;100.00
24306;BME280;12423;48.768;8.850;2023-02-22T06:12:34;96671.19;;;2.38;100.00
24306;BME280;12423;48.768;8.850;2023-02-22T06:14:35;96665.00;;;2.39;100.00
24306;BME280;12423;48.768;8.850;2023-02-22T06:16:36;96670.78;;;2.30;100.00
24306;BME280;12423;48.768;8.850;2023-02-22T06:18:37;96666.44;;;2.29;100.00
24306;BME280;12423;48.768;8.850;2023-02-22T06:20:38;96670.22;;;2.25;100.00
24306;BME280;12423;48.768;8.850;2023-02-22T06:22:39;96664.94;;;2.25;100.00
24306;BME280;12423;48.768;8.850;2023-02-22T06:24:44;96672.09;;;2.23;100.00
24306;BME280;12423;48.768;8.850;2023-02-22T06:26:45;96680.00;;;2.23;100.00
24306;BME280;12423;48.768;8.850;2023-02-22T06:28:46;96679.94;;;2.25;100.00
24306;BME280;12423;48.768;8.850;2023-02-22T06:30:47;96682.25;;;2.29;100.00
24306;BME280;12423;48.768;8.850;2023-02-22T06:32:48;96683.06;;;2.31;100.00
24306;BME280;12423;48.768;8.850;2023-02-22T06:34:49;96686.16;;;2.38;100.00
24306;BME280;12423;48.768;8.850;2023-02-22T06:36:50;96685.13;;;2.40;100.00
24306;BME280;12423;48.768;8.850;2023-02-22T06:38:51;96692.09;;;2.42;100.00
24306;BME280;12423;48.768;8.850;2023-02-22T06:40:52;96685.78;;;2.44;100.00
24306;BME280;12423;48.768;8.850;2023-02-22T06:42:56;96695.13;;;2.50;100.00
24306;BME280;12423;48.768;8.850;2023-02-22T06:44:57;96701.91;;;2.54;100.00
24306;BME280;12423;48.768;8.850;2023-02-22T06:46:58;96697.78;;;2.50;100.00
24306;BME280;12423;48.768;8.850;2023-02-22T06:48:59;96698.53;;;2.52;100.00
24306;BME280;12423;48.768;8.850;2023-02-22T06:51:00;96697.34;;;2.57;100.00
24306;BME280;12423;48.768;8.850;2023-02-22T06:53:01;96693.47;;;2.63;100.00
24306;BME280;12423;48.768;8.850;2023-02-22T06:55:02;96702.88;;;2.67;100.00
24306;BME280;12423;48.768;8.850;2023-02-22T06:57:03;96703.28;;;2.61;100.00
24306;BME280;12423;48.768;8.850;2023-02-22T06:59:04;96705.50;;;2.67;100.00
24306;BME280;12423;48.768;8.850;2023-02-22T07:01:05;96711.38;;;2.72;100.00
24306;BME280;12423;48.768;8.850;2023-02-22T07:03:07;96705.91;;;2.75;100.00
24306;BME280;12423;48.768;8.850;2023-02-22T07:05:10;96717.06;;;2.81;100.00
24306;BME280;12423;48.768;8.850;2023-02-22T07:07:12;96714.81;;;2.89;100.00
24306;BME280;12423;48.768;8.850;2023-02-22T07:09:14;96714.72;;;2.90;100.00
24306;BME280;12423;48.768;8.850;2023-02-22T07:11:16;96718.00;;;2.80;100.00
24306;BME280;12423;48.768;8.850;2023-02-22T07:13:17;96724.97;;;2.81;100.00
24306;BME280;12423;48.768;8.850;2023-02-22T07:15:20;96714.97;;;2.71;100.00
24306;BME280;12423;48.768;8.850;2023-02-22T07:17:21;96719.75;;;2.65;100.00
24306;BME280;12423;48.768;8.850;2023-02-22T07:19:22;96726.81;;;2.79;100.00
24306;BME280;12423;48.768;8.850;2023-02-22T07:21:24;96727.13;;;2.88;100.00
24306;BME280;12423;48.768;8.850;2023-02-22T07:23:25;96734.38;;;2.85;100.00
24306;BME280;12423;48.768;8.850;2023-02-22T07:25:26;96739.97;;;2.94;100.00
24306;BME280;12423;48.768;8.850;2023-02-22T07:27:27;96735.16;;;3.01;100.00
24306;BME280;12423;48.768;8.850;2023-02-22T07:29:28;96728.56;;;3.08;100.00
24306;BME280;12423;48.768;8.850;2023-02-22T07:31:37;96727.25;;;3.01;100.00
24306;BME280;12423;48.768;8.850;2023-02-22T07:33:38;96731.78;;;3.13;100.00
24306;BME280;12423;48.768;8.850;2023-02-22T07:35:44;96728.66;;;3.21;100.00
24306;BME280;12423;48.768;8.850;2023-02-22T07:37:46;96725.66;;;3.27;100.00
24306;BME280;12423;48.768;8.850;2023-02-22T07:39:47;96725.72;;;3.55;100.00
24306;BME280;12423;48.768;8.850;2023-02-22T07:41:48;96721.38;;;3.68;100.00
24306;BME280;12423;48.768;8.850;2023-02-22T07:43:56;96727.56;;;3.81;100.00
24306;BME280;12423;48.768;8.850;2023-02-22T07:45:59;96724.50;;;3.87;100.00
24306;BME280;12423;48.768;8.850;2023-02-22T07:48:01;96725.84;;;3.95;100.00
24306;BME280;12423;48.768;8.850;2023-02-22T07:50:03;96726.38;;;4.00;100.00
24306;BME280;12423;48.768;8.850;2023-02-22T07:52:04;96724.81;;;4.10;100.00
24306;BME280;12423;48.768;8.850;2023-02-22T07:54:07;96712.25;;;4.14;100.00
24306;BME280;12423;48.768;8.850;2023-02-22T07:56:08;96730.72;;;4.28;100.00
24306;BME280;12423;48.768;8.850;2023-02-22T07:58:13;96728.31;;;4.38;100.00
24306;BME280;12423;48.768;8.850;2023-02-22T08:00:20;96732.88;;;4.49;100.00
24306;BME280;12423;48.768;8.850;2023-02-22T08:02:24;96728.59;;;4.60;100.00
24306;BME280;12423;48.768;8.850;2023-02-22T08:04:25;96729.13;;;4.66;100.00
24306;BME280;12423;48.768;8.850;2023-02-22T08:06:26;96726.28;;;4.69;100.00
24306;BME280;12423;48.768;8.850;2023-02-22T08:08:28;96728.06;;;4.68;100.00
24306;BME280;12423;48.768;8.850;2023-02-22T08:10:29;96729.66;;;4.71;100.00
24306;BME280;12423;48.768;8.850;2023-02-22T08:12:31;96721.50;;;4.74;100.00
24306;BME280;12423;48.768;8.850;2023-02-22T08:14:32;96724.06;;;4.75;100.00
24306;BME280;12423;48.768;8.850;2023-02-22T08:16:32;96719.72;;;4.87;100.00
24306;BME280;12423;48.768;8.850;2023-02-22T08:18:33;96721.72;;;4.96;100.00
24306;BME280;12423;48.768;8.850;2023-02-22T08:20:36;96717.72;;;5.04;100.00
24306;BME280;12423;48.768;8.850;2023-02-22T08:22:37;96718.03;;;5.12;100.00
24306;BME280;12423;48.768;8.850;2023-02-22T08:24:38;96722.69;;;5.21;100.00
24306;BME280;12423;48.768;8.850;2023-02-22T08:26:44;96718.88;;;5.25;100.00
24306;BME280;12423;48.768;8.850;2023-02-22T08:28:47;96719.41;;;5.30;100.00
24306;BME280;12423;48.768;8.850;2023-02-22T08:30:48;96719.91;;;5.35;100.00
24306;BME280;12423;48.768;8.850;2023-02-22T08:32:50;96726.38;;;5.44;100.00
24306;BME280;12423;48.768;8.850;2023-02-22T08:34:51;96715.88;;;5.56;100.00
24306;BME280;12423;48.768;8.850;2023-02-22T08:36:52;96718.50;;;5.68;100.00
24306;BME280;12423;48.768;8.850;2023-02-22T08:38:53;96711.25;;;5.83;100.00
24306;BME280;12423;48.768;8.850;2023-02-22T08:40:55;96710.69;;;5.91;100.00
24306;BME280;12423;48.768;8.850;2023-02-22T08:42:57;96711.25;;;5.96;100.00
24306;BME280;12423;48.768;8.850;2023-02-22T08:44:57;96709.81;;;6.03;100.00
24306;BME280;12423;48.768;8.850;2023-02-22T08:46:58;96717.44;;;6.08;100.00
24306;BME280;12423;48.768;8.850;2023-02-22T08:48:59;96712.44;;;6.16;100.00
24306;BME280;12423;48.768;8.850;2023-02-22T08:51:00;96708.75;;;6.30;100.00
24306;BME280;12423;48.768;8.850;2023-02-22T08:53:03;96714.84;;;6.43;100.00
24306;BME280;12423;48.768;8.850;2023-02-22T08:55:05;96708.97;;;6.51;100.00
24306;BME280;12423;48.768;8.850;2023-02-22T08:57:06;96709.84;;;6.63;100.00
24306;BME280;12423;48.768;8.850;2023-02-22T08:59:07;96716.66;;;6.78;100.00
24306;BME280;12423;48.768;8.850;2023-02-22T09:01:08;96712.47;;;6.98;100.00
24306;BME280;12423;48.768;8.850;2023-02-22T09:03:11;96709.72;;;7.11;100.00
24306;BME280;12423;48.768;8.850;2023-02-22T09:05:13;96707.31;;;7.19;100.00
24306;BME280;12423;48.768;8.850;2023-02-22T09:07:16;96705.53;;;7.43;100.00
24306;BME280;12423;48.768;8.850;2023-02-22T09:09:18;96694.50;;;7.59;100.00
24306;BME280;12423;48.768;8.850;2023-02-22T09:11:21;96692.78;;;7.91;100.00
24306;BME280;12423;48.768;8.850;2023-02-22T09:13:21;96692.63;;;8.04;100.00
24306;BME280;12423;48.768;8.850;2023-02-22T09:15:24;96699.22;;;8.21;100.00
24306;BME280;12423;48.768;8.850;2023-02-22T09:17:25;96696.28;;;8.36;100.00
24306;BME280;12423;48.768;8.850;2023-02-22T09:19:26;96695.44;;;8.46;100.00
24306;BME280;12423;48.768;8.850;2023-02-22T09:21:27;96693.81;;;8.55;100.00
24306;BME280;12423;48.768;8.850;2023-02-22T09:23:28;96694.34;;;8.70;100.00
24306;BME280;12423;48.768;8.850;2023-02-22T09:25:30;96704.25;;;8.79;100.00
24306;BME280;12423;48.768;8.850;2023-02-22T09:27:31;96694.44;;;9.01;100.00
24306;BME280;12423;48.768;8.850;2023-02-22T09:29:32;96695.56;;;9.08;100.00
24306;BME280;12423;48.768;8.850;2023-02-22T09:31:37;96687.63;;;9.18;100.00
24306;BME280;12423;48.768;8.850;2023-02-22T09:33:40;96691.13;;;9.18;100.00
24306;BME280;12423;48.768;8.850;2023-02-22T09:35:42;96688.78;;;9.25;100.00
24306;BME280;12423;48.768;8.850;2023-02-22T09:37:45;96697.22;;;9.30;100.00
24306;BME280;12423;48.768;8.850;2023-02-22T09:39:47;96683.88;;;9.51;100.00
24306;BME280;12423;48.768;8.850;2023-02-22T09:44:15;96677.78;;;9.90;100.00
24306;BME280;12423;48.768;8.850;2023-02-22T09:48:19;96674.50;;;10.17;100.00
24306;BME280;12423;48.768;8.850;2023-02-22T09:50:25;96676.75;;;10.31;100.00
24306;BME280;12423;48.768;8.850;2023-02-22T09:52:38;96670.03;;;10.37;100.00
24306;BME280;12423;48.768;8.850;2023-02-22T09:54:45;96672.84;;;10.45;100.00
24306;BME280;12423;48.768;8.850;2023-02-22T09:56:55;96671.47;;;10.51;100.00
24306;BME280;12423;48.768;8.850;2023-02-22T09:59:00;96675.66;;;10.54;100.00
24306;BME280;12423;48.768;8.850;2023-02-22T10:01:42;96664.56;;;10.78;100.00
24306;BME280;12423;48.768;8.850;2023-02-22T10:03:51;96669.28;;;10.94;100.00
24306;BME280;12423;48.768;8.850;2023-02-22T10:06:00;96668.16;;;11.06;100.00
24306;BME280;12423;48.768;8.850;2023-02-22T10:08:07;96664.66;;;10.96;100.00
24306;BME280;12423;48.768;8.850;2023-02-22T10:10:18;96665.78;;;11.03;100.00
24306;BME280;12423;48.768;8.850;2023-02-22T10:18:58;96653.28;;;11.41;100.00
24306;BME280;12423;48.768;8.850;2023-02-22T10:23:37;96661.41;;;11.49;99.88
24306;BME280;12423;48.768;8.850;2023-02-22T10:25:42;96659.13;;;11.54;100.00
24306;BME280;12423;48.768;8.850;2023-02-22T10:28:41;96654.34;;;11.48;99.45
24306;BME280;12423;48.768;8.850;2023-02-22T10:30:25;96653.44;;;11.67;99.26
24306;BME280;12423;48.768;8.850;2023-02-22T10:32:31;96651.41;;;11.79;97.72
24306;BME280;12423;48.768;8.850;2023-02-22T10:34:40;96648.66;;;11.98;97.47
24306;BME280;12423;48.768;8.850;2023-02-22T10:36:45;96645.84;;;12.18;95.10
24306;BME280;12423;48.768;8.850;2023-02-22T10:38:54;96651.66;;;12.31;94.85
24306;BME280;12423;48.768;8.850;2023-02-22T10:43:09;96651.66;;;12.67;94.16
24306;BME280;12423;48.768;8.850;2023-02-22T10:45:23;96643.25;;;12.80;92.44
24306;BME280;12423;48.768;8.850;2023-02-22T10:47:25;96653.09;;;12.80;91.33
24306;BME280;12423;48.768;8.850;2023-02-22T10:49:31;96645.47;;;12.93;91.24
24306;BME280;12423;48.768;8.850;2023-02-22T10:51:34;96645.78;;;12.90;89.05
24306;BME280;12423;48.768;8.850;2023-02-22T10:53:36;96646.00;;;12.97;89.44
24306;BME280;12423;48.768;8.850;2023-02-22T10:56:18;96651.63;;;13.03;88.56
24306;BME280;12423;48.768;8.850;2023-02-22T10:58:23;96648.34;;;13.18;87.00
24306;BME280;12423;48.768;8.850;2023-02-22T11:00:29;96645.69;;;13.26;86.50
24306;BME280;12423;48.768;8.850;2023-02-22T11:02:31;96646.66;;;13.17;85.79
24306;BME280;12423;48.768;8.850;2023-02-22T11:04:51;96643.66;;;13.20;85.22
24306;BME280;12423;48.768;8.850;2023-02-22T11:09:10;96639.03;;;13.56;84.08
24306;BME280;12423;48.768;8.850;2023-02-22T11:11:23;96629.44;;;13.54;81.97
24306;BME280;12423;48.768;8.850;2023-02-22T11:13:33;96634.13;;;13.86;81.94
24306;BME280;12423;48.768;8.850;2023-02-22T11:15:37;96621.94;;;14.08;79.66
24306;BME280;12423;48.768;8.850;2023-02-22T11:17:38;96627.16;;;14.18;78.68
24306;BME280;12423;48.768;8.850;2023-02-22T11:19:46;96624.00;;;14.31;77.58
24306;BME280;12423;48.768;8.850;2023-02-22T11:21:52;96630.59;;;14.69;76.49
24306;BME280;12423;48.768;8.850;2023-02-22T11:24:04;96616.56;;;15.32;73.62
24306;BME280;12423;48.768;8.850;2023-02-22T11:26:15;96617.25;;;15.73;71.69
24306;BME280;12423;48.768;8.850;2023-02-22T11:28:26;96618.84;;;16.30;69.61
24306;BME280;12423;48.768;8.850;2023-02-22T11:30:31;96609.63;;;16.48;66.04
24306;BME280;12423;48.768;8.850;2023-02-22T11:32:33;96604.44;;;16.84;66.13
24306;BME280;12423;48.768;8.850;2023-02-22T11:34:38;96602.84;;;16.98;63.60
24306;BME280;12423;48.768;8.850;2023-02-22T11:36:41;96608.66;;;17.25;62.70
24306;BME280;12423;48.768;8.850;2023-02-22T11:38:53;96595.16;;;17.40;62.54
24306;BME280;12423;48.768;8.850;2023-02-22T11:41:10;96601.06;;;17.05;63.55